createdAt,value
2019-05-09T00:00:06.511Z,1.17
2019-05-09T00:02:34.944Z,1.00
2019-05-09T00:05:03.605Z,1.30
2019-05-09T00:07:29.827Z,1.23
2019-05-09T00:09:56.214Z,1.40
2019-05-09T00:12:23.424Z,1.27
2019-05-09T00:14:50.015Z,0.90
2019-05-09T00:17:16.532Z,1.70
2019-05-09T00:19:43.845Z,1.70
2019-05-09T00:22:10.491Z,1.30
2019-05-09T00:24:39.860Z,1.40
2019-05-09T00:27:06.397Z,1.00
2019-05-09T00:29:34.679Z,1.27
2019-05-09T00:32:03.615Z,1.77
2019-05-09T00:34:33.820Z,1.00
2019-05-09T00:37:02.513Z,0.80
2019-05-09T00:39:28.935Z,1.30
2019-05-09T00:41:55.647Z,1.57
2019-05-09T00:44:23.940Z,1.13
2019-05-09T00:46:53.517Z,1.40
2019-05-09T00:49:23.550Z,1.10
2019-05-09T00:51:50.167Z,0.90
2019-05-09T00:54:16.841Z,1.10
2019-05-09T00:56:43.690Z,0.77
2019-05-09T00:59:10.351Z,1.00
2019-05-09T01:01:36.840Z,0.90
2019-05-09T01:04:04.383Z,0.90
2019-05-09T01:06:31.127Z,0.80
2019-05-09T01:08:57.734Z,1.00
2019-05-09T01:11:24.588Z,1.00
2019-05-09T01:13:54.271Z,0.90
2019-05-09T01:16:20.541Z,1.00
2019-05-09T01:18:47.051Z,1.10
2019-05-09T01:21:13.623Z,1.30
2019-05-09T01:23:40.044Z,0.80
2019-05-09T01:26:06.542Z,1.00
2019-05-09T01:28:33.843Z,1.00
2019-05-09T01:31:00.732Z,1.00
2019-05-09T01:33:33.255Z,1.00
2019-05-09T01:36:03.888Z,2.10
2019-05-09T01:38:30.415Z,6.97
2019-05-09T01:40:56.799Z,7.40
2019-05-09T01:43:25.951Z,3.70
2019-05-09T01:45:54.057Z,3.13
2019-05-09T01:48:20.845Z,1.80
2019-05-09T01:50:47.222Z,1.30
2019-05-09T01:53:15.549Z,0.80
2019-05-09T01:55:43.941Z,0.60
2019-05-09T01:58:10.746Z,0.80
2019-05-09T02:00:37.155Z,0.70
2019-05-09T02:03:03.670Z,0.90
2019-05-09T02:05:30.050Z,1.00
2019-05-09T02:07:56.463Z,0.90
2019-05-09T02:10:23.297Z,1.00
2019-05-09T02:12:49.831Z,1.00
2019-05-09T02:15:20.463Z,1.00
2019-05-09T02:17:58.950Z,1.00
2019-05-09T02:20:17.261Z,1.00
2019-05-09T02:22:43.668Z,1.00
2019-05-09T02:25:10.270Z,1.17
2019-05-09T02:27:36.669Z,1.10
2019-05-09T02:30:05.775Z,1.03
2019-05-09T02:32:34.715Z,1.20
2019-05-09T02:35:04.721Z,1.13
2019-05-09T02:37:29.891Z,1.30
2019-05-09T02:39:59.186Z,1.13
2019-05-09T02:42:24.770Z,1.30
2019-05-09T02:44:51.195Z,1.50
2019-05-09T02:47:19.502Z,1.37
2019-05-09T02:49:48.634Z,1.50
2019-05-09T02:52:14.384Z,1.60
2019-05-09T02:54:40.891Z,1.37
2019-05-09T02:57:09.307Z,1.63
2019-05-09T02:59:38.663Z,1.60
2019-05-09T03:02:09.210Z,2.00
2019-05-09T03:04:34.572Z,1.60
2019-05-09T03:07:00.981Z,1.50
2019-05-09T03:09:28.649Z,1.40
2019-05-09T03:11:58.030Z,1.40
2019-05-09T03:14:23.881Z,1.40
2019-05-09T03:16:50.387Z,1.40
2019-05-09T03:19:19.452Z,1.40
2019-05-09T03:21:49.313Z,1.53
2019-05-09T03:24:18.246Z,1.40
2019-05-09T03:26:49.281Z,1.50
2019-05-09T03:29:18.806Z,1.20
2019-05-09T03:31:44.679Z,1.77
2019-05-09T03:34:11.157Z,1.63
2019-05-09T03:36:38.565Z,1.53
2019-05-09T03:39:08.145Z,1.47
2019-05-09T03:41:34.571Z,1.93
2019-05-09T03:44:01.141Z,1.43
2019-05-09T03:46:29.580Z,1.80
2019-05-09T03:48:58.138Z,1.90
2019-05-09T03:51:24.282Z,1.93
2019-05-09T03:53:50.771Z,1.93
2019-05-09T03:56:19.201Z,1.60
2019-05-09T03:58:47.458Z,1.80
2019-05-09T04:01:13.995Z,2.00
2019-05-09T04:03:40.579Z,1.90
2019-05-09T04:06:08.297Z,2.30
2019-05-09T04:08:37.466Z,2.13
2019-05-09T04:11:03.275Z,2.47
2019-05-09T04:13:31.592Z,2.73
2019-05-09T04:15:58.286Z,2.73
2019-05-09T04:18:24.988Z,2.60
2019-05-09T04:20:51.475Z,3.40
2019-05-09T04:23:18.634Z,2.80
2019-05-09T04:25:47.969Z,2.83
2019-05-09T04:28:14.435Z,2.47
2019-05-09T04:30:40.864Z,2.73
2019-05-09T04:33:07.391Z,2.50
2019-05-09T04:35:33.890Z,2.10
2019-05-09T04:38:00.399Z,2.30
2019-05-09T04:40:31.588Z,2.17
2019-05-09T04:43:10.471Z,2.10
2019-05-09T04:45:28.149Z,2.30
2019-05-09T04:47:54.194Z,2.67
2019-05-09T04:50:24.871Z,2.33
2019-05-09T04:52:49.010Z,2.33
2019-05-09T04:55:18.201Z,2.60
2019-05-09T04:57:44.722Z,2.17
2019-05-09T05:00:13.105Z,2.27
2019-05-09T05:02:41.443Z,2.20
2019-05-09T05:05:08.131Z,2.27
2019-05-09T05:07:34.643Z,2.10
2019-05-09T05:10:01.122Z,2.30
2019-05-09T05:12:29.665Z,2.10
2019-05-09T05:14:57.946Z,2.43
2019-05-09T05:17:24.650Z,2.87
2019-05-09T05:19:51.367Z,2.70
2019-05-09T05:22:19.697Z,2.40
2019-05-09T05:24:49.499Z,2.20
2019-05-09T05:27:18.650Z,2.40
2019-05-09T05:29:44.527Z,2.10
2019-05-09T05:32:12.946Z,2.50
2019-05-09T05:34:41.275Z,2.40
2019-05-09T05:37:07.754Z,2.43
2019-05-09T05:39:34.162Z,2.60
2019-05-09T05:42:00.547Z,2.30
2019-05-09T05:44:28.406Z,2.67
2019-05-09T05:46:58.490Z,2.20
2019-05-09T05:49:25.145Z,2.70
2019-05-09T05:51:51.731Z,2.30
2019-05-09T05:54:18.726Z,2.77
2019-05-09T05:56:47.384Z,2.10
2019-05-09T05:59:13.611Z,2.40
2019-05-09T06:01:41.994Z,2.70
2019-05-09T06:04:08.768Z,2.17
2019-05-09T06:06:37.475Z,2.20
2019-05-09T06:09:08.146Z,1.70
2019-05-09T06:11:34.053Z,1.97
2019-05-09T06:14:08.724Z,1.90
2019-05-09T06:16:28.742Z,1.80
2019-05-09T06:18:58.634Z,1.90
2019-05-09T06:21:25.482Z,1.90
2019-05-09T06:23:51.880Z,1.97
2019-05-09T06:26:18.945Z,1.90
2019-05-09T06:28:47.999Z,2.20
2019-05-09T06:31:14.054Z,1.90
2019-05-09T06:33:46.725Z,2.30
2019-05-09T06:36:08.900Z,2.13
2019-05-09T06:38:37.580Z,2.00
2019-05-09T06:41:03.692Z,1.93
2019-05-09T06:43:31.974Z,2.03
2019-05-09T06:45:59.411Z,2.20
2019-05-09T06:48:28.293Z,2.30
2019-05-09T06:50:54.299Z,2.10
2019-05-09T06:53:20.882Z,1.90
2019-05-09T06:55:47.658Z,2.00
2019-05-09T06:58:18.326Z,1.47
2019-05-09T07:00:46.270Z,1.90
2019-05-09T07:03:14.663Z,1.80
2019-05-09T07:05:43.093Z,1.70
2019-05-09T07:08:11.483Z,1.97
2019-05-09T07:10:37.906Z,1.50
2019-05-09T07:13:04.399Z,1.50
2019-05-09T07:15:30.914Z,1.40
2019-05-09T07:17:57.671Z,1.20
2019-05-09T07:20:24.103Z,1.23
2019-05-09T07:22:52.482Z,1.00
2019-05-09T07:25:20.790Z,1.15
2019-05-09T07:27:48.269Z,0.93
2019-05-09T07:30:17.995Z,0.80
2019-05-09T07:32:48.508Z,1.25
2019-05-09T07:35:14.744Z,0.98
2019-05-09T07:37:41.243Z,0.93
2019-05-09T07:40:08.536Z,0.98
2019-05-09T07:42:35.234Z,0.93
2019-05-09T07:45:02.354Z,0.70
2019-05-09T07:47:29.035Z,1.00
2019-05-09T07:49:55.524Z,0.78
2019-05-09T07:52:22.131Z,0.90
2019-05-09T07:54:48.610Z,0.55
2019-05-09T07:57:15.027Z,0.90
2019-05-09T07:59:41.630Z,0.80
2019-05-09T08:02:08.879Z,1.00
2019-05-09T08:04:38.280Z,0.88
2019-05-09T08:07:03.926Z,0.85
2019-05-09T08:09:30.322Z,0.68
2019-05-09T08:11:58.823Z,0.90
2019-05-09T08:14:28.120Z,0.82
2019-05-09T08:16:54.709Z,1.12
2019-05-09T08:19:21.226Z,1.22
2019-05-09T08:21:48.044Z,0.80
2019-05-09T08:24:14.596Z,1.07
2019-05-09T08:26:41.103Z,0.70
2019-05-09T08:29:09.477Z,1.00
2019-05-09T08:31:40.015Z,1.10
2019-05-09T08:34:04.539Z,0.68
2019-05-09T08:36:31.030Z,0.88
2019-05-09T08:38:58.676Z,0.90
2019-05-09T08:41:25.526Z,1.10
2019-05-09T08:43:52.043Z,1.20
2019-05-09T08:46:18.442Z,0.80
2019-05-09T08:48:44.847Z,0.90
2019-05-09T08:51:13.232Z,0.80
2019-05-09T08:53:39.739Z,0.88
2019-05-09T08:56:09.034Z,1.00
2019-05-09T08:58:35.349Z,1.00
2019-05-09T09:01:04.263Z,1.07
2019-05-09T09:03:30.251Z,0.80
2019-05-09T09:05:57.713Z,0.90
2019-05-09T09:08:24.747Z,1.10
2019-05-09T09:10:51.087Z,1.05
2019-05-09T09:13:18.191Z,1.00
2019-05-09T09:16:04.575Z,0.88
2019-05-09T09:18:13.072Z,0.98
2019-05-09T09:20:39.603Z,0.93
2019-05-09T09:23:08.525Z,0.80
2019-05-09T09:25:34.333Z,1.10
2019-05-09T09:28:00.820Z,1.12
2019-05-09T09:30:29.264Z,0.90
2019-05-09T09:32:58.358Z,1.35
2019-05-09T09:35:23.956Z,1.20
2019-05-09T09:37:52.241Z,1.12
2019-05-09T09:40:18.564Z,1.02
2019-05-09T09:42:45.016Z,0.88
2019-05-09T09:45:13.308Z,0.65
2019-05-09T09:47:40.440Z,0.70
2019-05-09T09:50:08.732Z,0.80
2019-05-09T09:52:38.260Z,0.80
2019-05-09T09:55:03.948Z,0.90
2019-05-09T09:57:30.359Z,0.90
2019-05-09T09:59:59.089Z,1.00
2019-05-09T10:02:28.042Z,1.05
2019-05-09T10:04:54.592Z,1.05
2019-05-09T10:07:21.147Z,1.20
2019-05-09T10:09:48.047Z,1.32
2019-05-09T10:12:18.048Z,1.05
2019-05-09T10:14:45.872Z,0.70
2019-05-09T10:17:14.225Z,0.70
2019-05-09T10:19:42.615Z,0.93
2019-05-09T10:22:10.875Z,1.42
2019-05-09T10:24:37.349Z,0.65
2019-05-09T10:27:08.339Z,1.05
2019-05-09T10:29:34.134Z,0.82
2019-05-09T10:32:00.607Z,1.30
2019-05-09T10:34:28.839Z,0.70
2019-05-09T10:36:55.343Z,0.75
2019-05-09T10:39:21.718Z,0.78
2019-05-09T10:41:48.312Z,0.57
2019-05-09T10:44:18.120Z,0.75
2019-05-09T10:46:56.379Z,0.90
2019-05-09T10:49:14.716Z,1.02
2019-05-09T10:51:42.108Z,0.93
2019-05-09T10:54:08.678Z,0.95
2019-05-09T10:56:35.045Z,0.90
2019-05-09T10:59:01.394Z,1.20
2019-05-09T11:01:29.549Z,1.52
2019-05-09T11:03:58.660Z,1.23
2019-05-09T11:06:24.803Z,1.13
2019-05-09T11:08:51.152Z,1.07
2019-05-09T11:11:18.235Z,1.10
2019-05-09T11:13:44.874Z,1.12
2019-05-09T11:16:11.343Z,0.80
2019-05-09T11:18:37.692Z,0.90
2019-05-09T11:21:04.171Z,0.42
2019-05-09T11:23:30.524Z,0.40
2019-05-09T11:25:58.077Z,0.57
2019-05-09T11:28:24.790Z,0.60
2019-05-09T11:30:51.195Z,0.57
2019-05-09T11:33:18.275Z,0.55
2019-05-09T11:35:44.837Z,0.40
2019-05-09T11:38:11.292Z,0.42
2019-05-09T11:40:37.995Z,0.30
2019-05-09T11:43:04.407Z,0.45
2019-05-09T11:45:30.880Z,0.50
2019-05-09T11:47:58.276Z,0.80
2019-05-09T11:50:24.995Z,1.10
2019-05-09T11:52:51.551Z,1.10
2019-05-09T11:55:29.660Z,1.42
2019-05-09T11:57:48.602Z,1.20
2019-05-09T12:00:15.141Z,1.10
2019-05-09T12:02:41.621Z,1.20
2019-05-09T12:05:08.746Z,1.42
2019-05-09T12:07:37.794Z,1.30
2019-05-09T12:10:07.623Z,1.27
2019-05-09T12:12:33.234Z,1.22
2019-05-09T12:14:59.595Z,1.45
2019-05-09T12:17:25.971Z,1.52
2019-05-09T12:20:08.794Z,1.90
2019-05-09T12:22:20.709Z,1.57
2019-05-09T12:24:48.138Z,1.60
2019-05-09T12:27:14.621Z,1.73
2019-05-09T12:29:40.979Z,1.77
2019-05-09T12:32:08.724Z,1.87
2019-05-09T12:34:37.370Z,1.80
2019-05-09T12:37:03.843Z,2.00
2019-05-09T12:39:30.290Z,1.98
2019-05-09T12:41:57.819Z,1.90
2019-05-09T12:44:25.273Z,1.30
2019-05-09T12:46:51.788Z,1.90
2019-05-09T12:49:18.979Z,1.60
2019-05-09T12:51:45.721Z,1.40
2019-05-09T12:54:12.075Z,1.75
2019-05-09T12:56:38.823Z,1.50
2019-05-09T12:59:05.496Z,1.42
2019-05-09T13:01:31.943Z,1.30
2019-05-09T13:03:58.517Z,1.25
2019-05-09T13:06:24.916Z,0.95
2019-05-09T13:08:51.287Z,1.00
2019-05-09T13:11:18.776Z,0.95
2019-05-09T13:13:47.981Z,0.90
2019-05-09T13:16:17.689Z,0.62
2019-05-09T13:18:48.856Z,0.90
2019-05-09T13:21:14.477Z,0.85
2019-05-09T13:23:41.001Z,0.82
2019-05-09T13:26:08.274Z,0.90
2019-05-09T13:28:34.771Z,0.75
2019-05-09T13:31:01.148Z,0.88
2019-05-09T13:33:28.677Z,0.93
2019-05-09T13:35:58.195Z,0.90
2019-05-09T13:38:23.538Z,0.85
2019-05-09T13:40:53.705Z,0.90
2019-05-09T13:43:19.057Z,1.00
2019-05-09T13:45:46.182Z,1.10
2019-05-09T13:48:26.934Z,1.10
2019-05-09T13:50:40.847Z,1.20
2019-05-09T13:53:07.682Z,1.10
2019-05-09T13:55:34.171Z,1.20
2019-05-09T13:58:00.639Z,1.20
2019-05-09T14:00:28.560Z,0.93
2019-05-09T14:02:55.251Z,1.30
2019-05-09T14:05:21.828Z,1.50
2019-05-09T14:07:49.170Z,1.60
2019-05-09T14:10:17.748Z,1.72
2019-05-09T14:12:44.388Z,2.00
2019-05-09T14:15:11.162Z,1.93
2019-05-09T14:17:49.317Z,1.20
2019-05-09T14:20:08.728Z,1.00
2019-05-09T14:22:34.347Z,1.50
2019-05-09T14:25:00.914Z,1.40
2019-05-09T14:27:28.550Z,0.97
2019-05-09T14:29:55.587Z,1.27
2019-05-09T14:32:21.967Z,1.00
2019-05-09T14:34:48.455Z,0.73
2019-05-09T14:37:15.011Z,0.90
2019-05-09T14:39:54.860Z,0.90
2019-05-09T14:42:12.051Z,1.20
2019-05-09T14:44:38.499Z,1.37
2019-05-09T14:47:08.197Z,1.10
2019-05-09T14:49:43.329Z,1.20
2019-05-09T14:52:02.868Z,1.30
2019-05-09T14:54:29.213Z,1.43
2019-05-09T14:56:58.175Z,1.50
2019-05-09T14:59:24.029Z,1.80
2019-05-09T15:01:50.499Z,1.47
2019-05-09T15:04:18.844Z,1.40
2019-05-09T15:06:45.318Z,1.00
2019-05-09T15:09:12.099Z,1.53
2019-05-09T15:11:39.511Z,1.20
2019-05-09T15:14:08.037Z,1.10
2019-05-09T15:16:34.551Z,1.20
2019-05-09T15:19:00.891Z,1.03
2019-05-09T15:21:27.251Z,1.20
2019-05-09T15:23:53.698Z,1.30
2019-05-09T15:26:20.164Z,1.80
2019-05-09T15:28:48.357Z,1.70
2019-05-09T15:31:14.916Z,1.40
2019-05-09T15:33:41.283Z,1.40
2019-05-09T15:36:09.151Z,1.13
2019-05-09T15:38:37.846Z,1.37
2019-05-09T15:41:04.033Z,1.00
2019-05-09T15:43:30.639Z,1.03
2019-05-09T15:45:58.950Z,1.20
2019-05-09T15:48:27.417Z,1.10
2019-05-09T15:50:53.868Z,1.10
2019-05-09T15:53:20.547Z,1.20
2019-05-09T15:55:48.075Z,0.90
2019-05-09T15:58:18.746Z,1.17
2019-05-09T16:00:44.731Z,1.00
2019-05-09T16:03:11.200Z,0.90
2019-05-09T16:05:38.577Z,1.20
2019-05-09T16:08:08.426Z,1.10
2019-05-09T16:10:33.587Z,1.02
2019-05-09T16:12:59.943Z,0.88
2019-05-09T16:15:28.602Z,1.15
2019-05-09T16:17:54.583Z,1.27
2019-05-09T16:20:36.495Z,1.00
2019-05-09T16:22:49.407Z,1.82
2019-05-09T16:25:15.852Z,1.07
2019-05-09T16:27:42.220Z,0.95
2019-05-09T16:30:08.880Z,0.90
2019-05-09T16:32:37.511Z,0.60
2019-05-09T16:35:03.913Z,1.00
2019-05-09T16:37:50.016Z,1.00
2019-05-09T16:39:58.647Z,0.93
2019-05-09T16:42:25.015Z,0.95
2019-05-09T16:44:53.367Z,0.80
2019-05-09T16:47:21.860Z,0.70
2019-05-09T16:49:48.088Z,1.10
2019-05-09T16:52:14.479Z,1.00
2019-05-09T16:54:42.747Z,1.10
2019-05-09T16:57:09.112Z,0.80
2019-05-09T16:59:35.665Z,1.00
2019-05-09T17:02:16.819Z,0.90
2019-05-09T17:04:30.395Z,0.90
2019-05-09T17:06:57.717Z,0.90
2019-05-09T17:09:24.323Z,0.73
2019-05-09T17:11:50.793Z,0.90
2019-05-09T17:14:19.217Z,1.23
2019-05-09T17:16:48.003Z,1.60
2019-05-09T17:19:13.850Z,1.60
2019-05-09T17:21:42.212Z,1.50
2019-05-09T17:24:10.490Z,1.60
2019-05-09T17:26:37.909Z,1.10
2019-05-09T17:29:04.523Z,1.03
2019-05-09T17:31:30.929Z,1.00
2019-05-09T17:33:57.977Z,0.87
2019-05-09T17:36:24.447Z,1.10
2019-05-09T17:38:50.920Z,1.47
2019-05-09T17:41:17.836Z,1.13
2019-05-09T17:43:44.351Z,1.13
2019-05-09T17:46:10.907Z,0.80
2019-05-09T17:48:38.597Z,0.90
2019-05-09T17:51:05.213Z,1.20
2019-05-09T17:53:33.907Z,2.63
2019-05-09T17:55:59.989Z,0.97
2019-05-09T17:58:32.541Z,1.10
2019-05-09T18:00:57.453Z,1.40
2019-05-09T18:03:23.338Z,0.90
2019-05-09T18:05:49.800Z,1.30
2019-05-09T18:08:18.564Z,1.10
2019-05-09T18:10:44.539Z,0.83
2019-05-09T18:13:11.012Z,0.87
2019-05-09T18:15:39.355Z,1.10
2019-05-09T18:18:05.822Z,1.00
2019-05-09T18:20:32.277Z,1.00
2019-05-09T18:22:58.786Z,1.50
2019-05-09T18:25:25.332Z,0.87
2019-05-09T18:27:51.892Z,1.50
2019-05-09T18:30:18.553Z,1.10
2019-05-09T18:32:47.639Z,1.57
2019-05-09T18:35:16.097Z,1.20
2019-05-09T18:37:42.587Z,1.20
2019-05-09T18:40:10.135Z,1.50
2019-05-09T18:42:36.585Z,1.60
2019-05-09T18:45:04.457Z,1.50
2019-05-09T18:47:30.831Z,1.30
2019-05-09T18:49:57.604Z,1.27
2019-05-09T18:52:23.944Z,1.10
2019-05-09T18:54:50.414Z,0.90
2019-05-09T18:57:16.867Z,1.10
2019-05-09T18:59:43.337Z,1.13
2019-05-09T19:02:09.696Z,0.97
2019-05-09T19:04:36.061Z,1.00
2019-05-09T19:07:02.520Z,1.00
2019-05-09T19:09:28.908Z,1.00
2019-05-09T19:11:55.388Z,1.10
2019-05-09T19:14:22.820Z,1.10
2019-05-09T19:16:51.066Z,1.20
2019-05-09T19:19:19.335Z,1.10
2019-05-09T19:21:47.578Z,0.97
2019-05-09T19:24:14.047Z,1.00
2019-05-09T19:26:40.514Z,1.07
2019-05-09T19:29:07.487Z,1.40
2019-05-09T19:31:34.388Z,1.20
2019-05-09T19:34:00.859Z,1.20
2019-05-09T19:36:27.218Z,1.20
2019-05-09T19:38:53.797Z,1.30
2019-05-09T19:41:20.155Z,1.40
2019-05-09T19:43:49.459Z,1.10
2019-05-09T19:46:16.004Z,1.27
2019-05-09T19:48:42.404Z,1.40
2019-05-09T19:51:08.879Z,1.33
2019-05-09T19:53:35.218Z,3.63
2019-05-09T19:56:01.804Z,1.87
2019-05-09T19:58:28.247Z,1.40
2019-05-09T20:00:54.616Z,1.40
2019-05-09T20:03:20.962Z,1.50
2019-05-09T20:05:47.431Z,1.53
2019-05-09T20:08:13.775Z,1.60
2019-05-09T20:10:51.023Z,1.50
2019-05-09T20:13:19.386Z,1.37
2019-05-09T20:15:48.289Z,1.40
2019-05-09T20:18:14.655Z,1.30
2019-05-09T20:20:41.144Z,1.30
2019-05-09T20:23:07.503Z,1.30
2019-05-09T20:25:33.959Z,1.33
2019-05-09T20:28:00.541Z,1.20
2019-05-09T20:30:27.086Z,1.30
2019-05-09T20:32:53.451Z,1.30
2019-05-09T20:35:19.816Z,1.20
2019-05-09T20:37:46.376Z,1.40
2019-05-09T20:40:12.852Z,1.30
2019-05-09T20:42:39.290Z,1.20
2019-05-09T20:45:06.030Z,1.20
2019-05-09T20:47:32.651Z,1.30
2019-05-09T20:49:59.109Z,1.50
2019-05-09T20:52:25.570Z,2.67
2019-05-09T20:54:51.949Z,3.30
2019-05-09T20:57:18.539Z,3.27
2019-05-09T20:59:44.888Z,3.80
2019-05-09T21:02:11.455Z,4.90
2019-05-09T21:04:37.903Z,3.63
2019-05-09T21:07:04.371Z,2.70
2019-05-09T21:09:30.919Z,1.90
2019-05-09T21:11:57.493Z,1.80
2019-05-09T21:14:23.854Z,1.57
2019-05-09T21:16:50.238Z,1.77
2019-05-09T21:19:16.794Z,1.63
2019-05-09T21:21:43.267Z,2.00
2019-05-09T21:24:09.711Z,1.90
2019-05-09T21:26:36.093Z,1.80
2019-05-09T21:29:02.539Z,1.80
2019-05-09T21:31:29.083Z,2.00
2019-05-09T21:33:55.432Z,1.83
2019-05-09T21:36:21.844Z,1.87
2019-05-09T21:38:48.295Z,2.13
2019-05-09T21:41:14.756Z,2.10
2019-05-09T21:43:41.909Z,1.87
2019-05-09T21:46:08.272Z,2.10
2019-05-09T21:48:38.187Z,1.90
2019-05-09T21:51:03.088Z,2.07
2019-05-09T21:53:40.388Z,1.93
2019-05-09T21:55:57.799Z,2.03
2019-05-09T21:58:24.263Z,2.60
2019-05-09T22:00:52.823Z,2.20
2019-05-09T22:03:19.387Z,2.27
2019-05-09T22:05:45.839Z,2.10
2019-05-09T22:08:12.410Z,2.10
2019-05-09T22:10:38.750Z,1.97
2019-05-09T22:13:05.232Z,2.00
2019-05-09T22:15:31.885Z,2.33
2019-05-09T22:17:58.267Z,2.43
2019-05-09T22:20:24.715Z,2.37
2019-05-09T22:22:51.179Z,2.77
2019-05-09T22:25:17.659Z,1.90
2019-05-09T22:27:44.135Z,2.57
2019-05-09T22:30:13.083Z,2.03
2019-05-09T22:32:39.677Z,2.23
2019-05-09T22:35:06.419Z,2.43
2019-05-09T22:37:32.878Z,2.00
2019-05-09T22:39:59.256Z,2.30
2019-05-09T22:42:25.822Z,2.10
2019-05-09T22:44:52.275Z,2.17
2019-05-09T22:47:18.743Z,2.30
2019-05-09T22:49:45.191Z,1.90
2019-05-09T22:52:11.655Z,2.00
2019-05-09T22:54:38.150Z,2.07
2019-05-09T22:57:04.647Z,2.07
2019-05-09T22:59:31.091Z,2.27
2019-05-09T23:01:57.555Z,1.77
2019-05-09T23:04:23.899Z,1.67
2019-05-09T23:06:50.351Z,2.13
2019-05-09T23:09:16.719Z,2.10
2019-05-09T23:11:43.071Z,2.50
2019-05-09T23:14:09.435Z,2.03
2019-05-09T23:16:37.792Z,2.30
2019-05-09T23:19:04.176Z,2.40
2019-05-09T23:21:30.722Z,1.90
2019-05-09T23:23:59.106Z,2.27
2019-05-09T23:26:25.560Z,2.23
2019-05-09T23:28:52.045Z,2.60
2019-05-09T23:31:20.346Z,2.50
2019-05-09T23:33:46.720Z,2.67
2019-05-09T23:36:13.163Z,2.63
2019-05-09T23:38:41.555Z,2.80
2019-05-09T23:41:07.930Z,2.57
2019-05-09T23:43:34.298Z,2.70
2019-05-09T23:46:00.645Z,2.77
2019-05-09T23:48:27.033Z,2.57
2019-05-09T23:50:53.611Z,2.50
2019-05-09T23:53:23.759Z,2.70
2019-05-09T23:55:52.142Z,2.77
2019-05-09T23:58:20.489Z,2.50
